createdAt,value
2023-04-23T00:01:48.180Z,12.01
2023-04-23T00:04:18.289Z,11.98
2023-04-23T00:06:48.120Z,11.94
2023-04-23T00:09:16.945Z,11.98
2023-04-23T00:11:43.759Z,11.96
2023-04-23T00:14:11.389Z,12.01
2023-04-23T00:16:39.436Z,12.00
2023-04-23T00:19:06.020Z,11.91
2023-04-23T00:21:32.662Z,11.94
2023-04-23T00:23:59.281Z,11.94
2023-04-23T00:26:25.917Z,11.89
2023-04-23T00:28:52.432Z,11.85
2023-04-23T00:31:22.551Z,11.80
2023-04-23T00:33:50.047Z,11.89
2023-04-23T00:36:16.585Z,11.86
2023-04-23T00:38:43.178Z,11.79
2023-04-23T00:41:09.975Z,11.82
2023-04-23T00:43:37.504Z,11.78
2023-04-23T00:46:04.317Z,11.76
2023-04-23T00:48:32.010Z,11.83
2023-04-23T00:51:00.637Z,11.74
2023-04-23T00:53:27.428Z,11.72
2023-04-23T00:55:54.593Z,11.59
2023-04-23T00:58:21.638Z,11.60
2023-04-23T01:00:49.188Z,11.57
2023-04-23T01:03:18.577Z,11.54
2023-04-23T01:05:45.494Z,11.59
2023-04-23T01:08:16.541Z,11.56
2023-04-23T01:10:47.498Z,11.47
2023-04-23T01:13:14.581Z,11.56
2023-04-23T01:15:41.657Z,11.51
2023-04-23T01:18:08.203Z,11.58
2023-04-23T01:20:35.788Z,11.46
2023-04-23T01:23:03.746Z,11.47
2023-04-23T01:25:30.546Z,11.51
2023-04-23T01:27:58.105Z,11.43
2023-04-23T01:30:28.444Z,11.31
2023-04-23T01:32:56.407Z,11.39
2023-04-23T01:35:23.871Z,11.37
2023-04-23T01:37:52.606Z,11.31
2023-04-23T01:40:20.341Z,11.31
2023-04-23T01:42:48.194Z,11.20
2023-04-23T01:45:14.701Z,11.09
2023-04-23T01:47:42.097Z,11.14
2023-04-23T01:50:09.584Z,11.11
2023-04-23T01:52:36.533Z,11.11
2023-04-23T01:55:03.608Z,11.08
2023-04-23T01:57:30.511Z,11.12
2023-04-23T02:00:08.237Z,11.16
2023-04-23T02:02:35.846Z,11.08
2023-04-23T02:05:04.741Z,11.03
2023-04-23T02:07:32.727Z,11.02
2023-04-23T02:09:59.563Z,11.10
2023-04-23T02:12:26.331Z,11.05
2023-04-23T02:14:54.605Z,10.98
2023-04-23T02:17:22.873Z,11.01
2023-04-23T02:19:50.068Z,11.02
2023-04-23T02:22:17.942Z,10.90
2023-04-23T02:24:44.592Z,10.81
2023-04-23T02:27:11.329Z,10.89
2023-04-23T02:29:38.002Z,10.93
2023-04-23T02:32:04.653Z,10.95
2023-04-23T02:34:31.187Z,10.96
2023-04-23T02:36:57.772Z,10.91
2023-04-23T02:39:24.362Z,10.84
2023-04-23T02:41:50.987Z,10.79
2023-04-23T02:44:17.556Z,10.85
2023-04-23T02:46:44.143Z,10.80
2023-04-23T02:49:10.743Z,10.81
2023-04-23T02:51:37.256Z,10.79
2023-04-23T02:54:04.155Z,10.74
2023-04-23T02:56:30.838Z,10.64
2023-04-23T02:58:58.446Z,10.58
2023-04-23T03:01:25.127Z,10.45
2023-04-23T03:03:51.918Z,10.51
2023-04-23T03:06:18.749Z,10.34
2023-04-23T03:08:46.057Z,10.47
2023-04-23T03:11:12.614Z,10.33
2023-04-23T03:13:39.118Z,10.39
2023-04-23T03:16:06.160Z,10.38
2023-04-23T03:18:32.811Z,10.35
2023-04-23T03:21:00.193Z,10.34
2023-04-23T03:23:26.803Z,10.31
2023-04-23T03:25:53.311Z,10.19
2023-04-23T03:28:19.857Z,10.25
2023-04-23T03:30:46.472Z,10.26
2023-04-23T03:33:12.994Z,10.09
2023-04-23T03:35:39.524Z,9.94
2023-04-23T03:38:06.382Z,10.03
2023-04-23T03:40:32.922Z,10.06
2023-04-23T03:42:59.764Z,10.13
2023-04-23T03:45:26.684Z,10.15
2023-04-23T03:47:53.224Z,10.22
2023-04-23T03:50:19.814Z,10.14
2023-04-23T03:52:46.345Z,10.17
2023-04-23T03:55:13.180Z,10.08
2023-04-23T03:57:39.683Z,10.18
2023-04-23T04:00:11.897Z,10.22
2023-04-23T04:02:39.535Z,10.18
2023-04-23T04:05:06.886Z,10.11
2023-04-23T04:07:34.373Z,10.06
2023-04-23T04:10:03.156Z,10.01
2023-04-23T04:12:29.738Z,9.90
2023-04-23T04:14:56.437Z,10.09
2023-04-23T04:17:22.995Z,10.06
2023-04-23T04:19:49.570Z,10.16
2023-04-23T04:22:16.253Z,10.12
2023-04-23T04:24:43.820Z,10.10
2023-04-23T04:27:11.672Z,10.16
2023-04-23T04:29:40.769Z,10.01
2023-04-23T04:32:09.306Z,10.03
2023-04-23T04:34:38.346Z,10.02
2023-04-23T04:37:05.319Z,9.99
2023-04-23T04:39:31.849Z,10.02
2023-04-23T04:41:59.946Z,9.97
2023-04-23T04:44:26.539Z,9.92
2023-04-23T04:46:53.869Z,10.02
2023-04-23T04:49:21.817Z,10.02
2023-04-23T04:51:48.415Z,9.86
2023-04-23T04:54:15.030Z,9.90
2023-04-23T04:56:41.505Z,9.91
2023-04-23T04:59:08.144Z,10.00
2023-04-23T05:01:35.027Z,9.95
2023-04-23T05:04:01.843Z,10.03
2023-04-23T05:06:28.838Z,10.12
2023-04-23T05:08:55.616Z,10.13
2023-04-23T05:11:22.158Z,10.07
2023-04-23T05:13:48.982Z,9.98
2023-04-23T05:16:15.782Z,10.00
2023-04-23T05:18:42.655Z,9.99
2023-04-23T05:21:09.373Z,9.98
2023-04-23T05:23:36.809Z,9.98
2023-04-23T05:26:03.996Z,10.06
2023-04-23T05:28:31.339Z,10.04
2023-04-23T05:30:58.524Z,10.06
2023-04-23T05:33:30.719Z,10.06
2023-04-23T05:36:00.183Z,10.11
2023-04-23T05:38:26.915Z,10.04
2023-04-23T05:40:53.496Z,9.96
2023-04-23T05:43:20.179Z,10.04
2023-04-23T05:45:46.742Z,10.03
2023-04-23T05:48:13.339Z,10.05
2023-04-23T05:50:39.958Z,10.03
2023-04-23T05:53:06.631Z,10.02
2023-04-23T05:55:33.229Z,9.98
2023-04-23T05:57:59.839Z,10.08
2023-04-23T06:00:26.510Z,10.14
2023-04-23T06:02:53.419Z,10.21
2023-04-23T06:05:20.847Z,10.21
2023-04-23T06:07:47.616Z,10.16
2023-04-23T06:10:14.234Z,10.20
2023-04-23T06:12:42.230Z,10.26
2023-04-23T06:15:10.317Z,10.29
2023-04-23T06:17:37.697Z,10.31
2023-04-23T06:20:05.195Z,10.44
2023-04-23T06:22:32.622Z,10.39
2023-04-23T06:24:59.231Z,10.51
2023-04-23T06:27:27.169Z,10.62
2023-04-23T06:29:53.916Z,10.61
2023-04-23T06:32:21.384Z,10.72
2023-04-23T06:35:00.235Z,10.74
2023-04-23T06:37:29.710Z,10.87
2023-04-23T06:39:56.479Z,10.98
2023-04-23T06:42:23.007Z,11.08
2023-04-23T06:44:49.548Z,11.07
2023-04-23T06:47:16.071Z,11.17
2023-04-23T06:49:42.783Z,11.12
2023-04-23T06:52:09.397Z,11.20
2023-04-23T06:54:36.071Z,11.25
2023-04-23T06:57:02.652Z,11.28
2023-04-23T06:59:29.161Z,11.27
2023-04-23T07:01:55.674Z,11.29
2023-04-23T07:04:22.289Z,11.43
2023-04-23T07:06:48.809Z,11.44
2023-04-23T07:09:15.289Z,11.55
2023-04-23T07:11:42.130Z,11.55
2023-04-23T07:14:09.216Z,11.62
2023-04-23T07:16:36.174Z,11.72
2023-04-23T07:19:02.763Z,11.81
2023-04-23T07:21:29.667Z,11.85
2023-04-23T07:24:00.762Z,11.90
2023-04-23T07:26:28.049Z,11.95
2023-04-23T07:28:54.699Z,12.02
2023-04-23T07:31:21.995Z,12.12
2023-04-23T07:33:48.587Z,12.11
2023-04-23T07:36:15.444Z,12.18
2023-04-23T07:38:44.133Z,12.33
2023-04-23T07:41:10.699Z,12.48
2023-04-23T07:43:38.730Z,12.60
2023-04-23T07:46:05.576Z,12.69
2023-04-23T07:48:32.270Z,12.74
2023-04-23T07:50:58.839Z,12.83
2023-04-23T07:53:25.476Z,12.90
2023-04-23T07:55:52.497Z,12.92
2023-04-23T07:58:19.059Z,12.95
2023-04-23T08:00:46.377Z,13.02
2023-04-23T08:03:13.104Z,13.13
2023-04-23T08:05:41.435Z,13.10
2023-04-23T08:08:08.615Z,13.21
2023-04-23T08:10:35.650Z,13.34
2023-04-23T08:13:03.051Z,13.47
2023-04-23T08:15:29.673Z,13.62
2023-04-23T08:17:56.253Z,13.73
2023-04-23T08:20:22.923Z,13.81
2023-04-23T08:22:51.496Z,13.98
2023-04-23T08:25:18.073Z,14.12
2023-04-23T08:27:44.562Z,14.18
2023-04-23T08:30:11.499Z,14.23
2023-04-23T08:32:40.722Z,14.31
2023-04-23T08:35:08.306Z,14.43
2023-04-23T08:37:34.978Z,14.62
2023-04-23T08:40:01.544Z,14.71
2023-04-23T08:42:41.325Z,14.79
2023-04-23T08:45:08.287Z,14.94
2023-04-23T08:47:36.230Z,15.13
2023-04-23T08:50:04.391Z,15.21
2023-04-23T08:52:37.215Z,15.33
2023-04-23T08:55:10.614Z,15.49
2023-04-23T08:57:41.327Z,15.60
2023-04-23T09:00:12.503Z,15.63
2023-04-23T09:02:44.098Z,15.58
2023-04-23T09:05:11.349Z,15.62
2023-04-23T09:07:38.045Z,15.76
2023-04-23T09:10:07.001Z,15.83
2023-04-23T09:12:36.533Z,15.83
2023-04-23T09:15:10.645Z,15.81
2023-04-23T09:17:41.061Z,15.90
2023-04-23T09:20:11.762Z,16.03
2023-04-23T09:22:49.042Z,16.15
2023-04-23T09:25:17.934Z,16.24
2023-04-23T09:27:46.123Z,16.36
2023-04-23T09:30:13.849Z,16.45
2023-04-23T09:32:42.531Z,16.59
2023-04-23T09:35:10.989Z,16.59
2023-04-23T09:37:37.710Z,16.57
2023-04-23T09:40:09.517Z,16.60
2023-04-23T09:42:37.317Z,16.60
2023-04-23T09:45:09.097Z,16.61
2023-04-23T09:47:39.137Z,16.82
2023-04-23T09:50:07.318Z,17.04
2023-04-23T09:52:34.142Z,17.09
2023-04-23T09:55:05.272Z,17.16
2023-04-23T09:57:38.672Z,17.24
2023-04-23T10:00:17.349Z,17.35
2023-04-23T10:02:49.156Z,17.45
2023-04-23T10:05:25.053Z,17.41
2023-04-23T10:07:57.655Z,17.30
2023-04-23T10:10:25.735Z,17.28
2023-04-23T10:12:55.779Z,17.24
2023-04-23T10:15:27.042Z,17.39
2023-04-23T10:17:55.782Z,17.45
2023-04-23T10:20:24.006Z,17.56
2023-04-23T10:22:53.589Z,17.62
2023-04-23T10:25:21.321Z,17.70
2023-04-23T10:27:54.201Z,17.85
2023-04-23T10:30:23.280Z,18.03
2023-04-23T10:32:51.426Z,18.07
2023-04-23T10:35:18.102Z,18.17
2023-04-23T10:37:46.981Z,18.24
2023-04-23T10:40:16.305Z,18.29
2023-04-23T10:42:44.389Z,18.24
2023-04-23T10:45:24.027Z,18.34
2023-04-23T10:47:54.498Z,18.39
2023-04-23T10:50:29.270Z,18.46
2023-04-23T10:52:58.853Z,18.56
2023-04-23T10:55:30.618Z,18.73
2023-04-23T10:58:04.294Z,18.70
2023-04-23T11:00:46.093Z,18.85
2023-04-23T11:03:38.805Z,18.92
2023-04-23T11:06:08.798Z,18.87
2023-04-23T11:08:36.048Z,18.72
2023-04-23T11:11:08.350Z,18.49
2023-04-23T11:13:35.068Z,18.46
2023-04-23T11:16:22.052Z,18.37
2023-04-23T11:18:59.338Z,18.12
2023-04-23T11:21:57.613Z,18.22
2023-04-23T11:24:25.054Z,18.31
2023-04-23T11:26:55.533Z,18.01
2023-04-23T11:29:24.026Z,17.79
2023-04-23T11:32:01.429Z,17.89
2023-04-23T11:34:29.632Z,17.97
2023-04-23T11:36:59.546Z,17.40
2023-04-23T11:39:27.500Z,17.24
2023-04-23T11:41:54.818Z,16.67
2023-04-23T11:44:21.738Z,16.18
2023-04-23T11:46:49.915Z,16.38
2023-04-23T11:49:20.634Z,15.69
2023-04-23T11:51:48.495Z,15.68
2023-04-23T11:54:15.250Z,15.40
2023-04-23T11:56:42.434Z,15.25
2023-04-23T11:59:09.622Z,14.88
2023-04-23T12:01:41.554Z,14.38
2023-04-23T12:04:22.448Z,14.26
2023-04-23T12:06:50.989Z,14.07
2023-04-23T12:09:19.912Z,13.80
2023-04-23T12:11:47.070Z,13.68
2023-04-23T12:14:15.250Z,13.57
2023-04-23T12:16:43.943Z,13.54
2023-04-23T12:19:14.152Z,13.58
2023-04-23T12:21:55.728Z,13.53
2023-04-23T12:24:27.579Z,13.42
2023-04-23T12:26:56.061Z,13.42
2023-04-23T12:29:23.257Z,13.44
2023-04-23T12:31:52.292Z,13.47
2023-04-23T12:34:22.009Z,13.16
2023-04-23T12:36:54.316Z,12.99
2023-04-23T12:39:35.001Z,12.91
2023-04-23T12:42:05.202Z,12.78
2023-04-23T12:44:34.727Z,12.64
2023-04-23T12:47:04.850Z,12.64
2023-04-23T12:49:32.349Z,12.19
2023-04-23T12:52:01.701Z,12.35
2023-04-23T12:54:34.145Z,12.19
2023-04-23T12:57:04.555Z,12.09
2023-04-23T12:59:32.010Z,12.21
2023-04-23T13:02:03.559Z,12.02
2023-04-23T13:04:32.374Z,12.21
2023-04-23T13:06:59.592Z,12.19
2023-04-23T13:09:28.314Z,12.20
2023-04-23T13:11:55.378Z,12.09
2023-04-23T13:14:22.037Z,11.94
2023-04-23T13:16:49.070Z,11.94
2023-04-23T13:19:17.175Z,12.02
2023-04-23T13:21:44.451Z,11.98
2023-04-23T13:24:10.993Z,12.06
2023-04-23T13:26:37.551Z,11.99
2023-04-23T13:29:04.196Z,12.06
2023-04-23T13:31:31.529Z,12.05
2023-04-23T13:33:58.546Z,12.29
2023-04-23T13:36:26.001Z,12.37
2023-04-23T13:38:52.860Z,12.29
2023-04-23T13:41:19.445Z,12.45
2023-04-23T13:43:46.060Z,12.63
2023-04-23T13:46:14.229Z,12.76
2023-04-23T13:48:41.488Z,12.52
2023-04-23T13:51:21.417Z,12.51
2023-04-23T13:53:52.969Z,12.76
2023-04-23T13:56:19.538Z,12.86
2023-04-23T13:58:48.344Z,13.05
2023-04-23T14:01:15.815Z,12.66
2023-04-23T14:03:42.460Z,12.76
2023-04-23T14:06:09.056Z,12.71
2023-04-23T14:08:36.913Z,12.52
2023-04-23T14:11:04.464Z,12.86
2023-04-23T14:13:32.805Z,13.00
2023-04-23T14:16:02.021Z,13.25
2023-04-23T14:18:30.389Z,13.37
2023-04-23T14:20:57.079Z,13.14
2023-04-23T14:23:23.802Z,13.19
2023-04-23T14:25:53.882Z,13.20
2023-04-23T14:28:40.072Z,13.16
2023-04-23T14:31:07.113Z,13.03
2023-04-23T14:33:33.671Z,13.10
2023-04-23T14:36:00.242Z,13.13
2023-04-23T14:38:26.813Z,13.07
2023-04-23T14:40:53.759Z,12.95
2023-04-23T14:43:20.314Z,12.84
2023-04-23T14:45:47.125Z,13.03
2023-04-23T14:48:13.831Z,13.05
2023-04-23T14:50:40.414Z,13.17
2023-04-23T14:53:09.971Z,13.28
2023-04-23T14:55:36.822Z,13.36
2023-04-23T14:58:03.340Z,13.30
2023-04-23T15:00:30.233Z,13.33
2023-04-23T15:02:57.010Z,13.34
2023-04-23T15:05:23.873Z,13.28
2023-04-23T15:07:51.876Z,13.27
2023-04-23T15:10:20.391Z,13.54
2023-04-23T15:13:02.323Z,13.74
2023-04-23T15:16:02.899Z,13.68
2023-04-23T15:18:29.904Z,13.77
2023-04-23T15:20:56.475Z,13.85
2023-04-23T15:23:24.186Z,13.92
2023-04-23T15:25:51.446Z,13.99
2023-04-23T15:28:18.355Z,14.02
2023-04-23T15:30:45.506Z,14.12
2023-04-23T15:33:12.022Z,14.21
2023-04-23T15:35:38.568Z,13.96
2023-04-23T15:38:05.133Z,14.40
2023-04-23T15:40:31.924Z,14.46
2023-04-23T15:42:59.155Z,14.29
2023-04-23T15:45:25.887Z,13.96
2023-04-23T15:47:52.558Z,14.03
2023-04-23T15:50:23.049Z,13.96
2023-04-23T15:52:50.530Z,13.97
2023-04-23T15:55:17.836Z,14.09
2023-04-23T15:57:44.306Z,14.07
2023-04-23T16:00:11.484Z,14.21
2023-04-23T16:02:38.162Z,14.24
2023-04-23T16:05:05.227Z,14.20
2023-04-23T16:07:31.827Z,14.26
2023-04-23T16:09:58.583Z,14.29
2023-04-23T16:12:25.194Z,14.27
2023-04-23T16:14:51.737Z,14.21
2023-04-23T16:17:18.392Z,14.19
2023-04-23T16:19:45.091Z,14.17
2023-04-23T16:22:11.831Z,14.17
2023-04-23T16:24:38.354Z,14.20
2023-04-23T16:27:06.686Z,14.29
2023-04-23T16:29:33.175Z,14.34
2023-04-23T16:32:00.150Z,14.48
2023-04-23T16:34:26.727Z,14.92
2023-04-23T16:36:53.372Z,15.51
2023-04-23T16:39:19.976Z,16.05
2023-04-23T16:41:46.988Z,15.82
2023-04-23T16:44:13.718Z,15.61
2023-04-23T16:46:40.450Z,15.46
2023-04-23T16:49:08.397Z,15.22
2023-04-23T16:51:35.024Z,15.04
2023-04-23T16:54:01.707Z,14.97
2023-04-23T16:56:28.780Z,15.28
2023-04-23T16:58:55.690Z,15.36
2023-04-23T17:01:22.787Z,15.29
2023-04-23T17:03:49.628Z,15.18
2023-04-23T17:06:25.944Z,15.17
2023-04-23T17:08:52.534Z,15.00
2023-04-23T17:11:19.153Z,14.87
2023-04-23T17:13:45.816Z,14.87
2023-04-23T17:16:12.303Z,14.72
2023-04-23T17:18:38.863Z,14.64
2023-04-23T17:21:05.630Z,14.51
2023-04-23T17:23:32.228Z,14.63
2023-04-23T17:25:59.351Z,14.75
2023-04-23T17:28:28.626Z,14.89
2023-04-23T17:30:55.980Z,14.81
2023-04-23T17:33:23.421Z,14.66
2023-04-23T17:35:55.162Z,14.62
2023-04-23T17:38:22.295Z,14.48
2023-04-23T17:40:50.210Z,14.51
2023-04-23T17:43:17.638Z,14.51
2023-04-23T17:45:45.571Z,14.57
2023-04-23T17:48:12.840Z,14.56
2023-04-23T17:50:39.447Z,14.55
2023-04-23T17:53:06.187Z,14.46
2023-04-23T17:55:33.202Z,14.49
2023-04-23T17:58:05.464Z,14.51
2023-04-23T18:00:41.781Z,14.45
2023-04-23T18:03:09.800Z,14.40
2023-04-23T18:05:36.496Z,14.38
2023-04-23T18:08:03.193Z,14.43
2023-04-23T18:10:29.958Z,14.34
2023-04-23T18:12:57.005Z,14.39
2023-04-23T18:15:25.708Z,14.48
2023-04-23T18:17:55.725Z,14.38
2023-04-23T18:20:24.857Z,14.33
2023-04-23T18:22:53.550Z,14.27
2023-04-23T18:25:20.369Z,14.30
2023-04-23T18:27:47.004Z,14.31
2023-04-23T18:30:15.340Z,14.32
2023-04-23T18:32:47.524Z,14.26
2023-04-23T18:35:14.340Z,14.31
2023-04-23T18:37:44.139Z,14.29
2023-04-23T18:40:11.509Z,14.24
2023-04-23T18:42:38.322Z,14.19
2023-04-23T18:45:05.607Z,14.15
2023-04-23T18:47:38.127Z,14.14
2023-04-23T18:50:09.800Z,14.08
2023-04-23T18:52:36.399Z,14.05
2023-04-23T18:55:03.240Z,14.04
2023-04-23T18:57:29.764Z,14.01
2023-04-23T18:59:57.051Z,13.99
2023-04-23T19:02:34.507Z,13.96
2023-04-23T19:05:01.552Z,13.99
2023-04-23T19:07:28.112Z,13.93
2023-04-23T19:09:54.801Z,13.93
2023-04-23T19:12:21.290Z,13.90
2023-04-23T19:14:47.835Z,13.87
2023-04-23T19:17:15.414Z,13.78
2023-04-23T19:19:43.447Z,13.79
2023-04-23T19:22:10.140Z,13.72
2023-04-23T19:24:37.211Z,13.76
2023-04-23T19:27:03.833Z,13.73
2023-04-23T19:29:30.466Z,13.71
2023-04-23T19:31:56.964Z,13.71
2023-04-23T19:34:23.476Z,13.75
2023-04-23T19:36:50.021Z,13.68
2023-04-23T19:39:16.477Z,13.69
2023-04-23T19:41:42.994Z,13.63
2023-04-23T19:44:09.726Z,13.61
2023-04-23T19:46:36.269Z,13.64
2023-04-23T19:49:02.879Z,13.64
2023-04-23T19:51:35.373Z,13.69
2023-04-23T19:54:02.347Z,13.68
2023-04-23T19:56:28.935Z,13.68
2023-04-23T19:58:55.786Z,13.71
2023-04-23T20:01:22.670Z,13.65
2023-04-23T20:03:51.873Z,13.68
2023-04-23T20:06:18.691Z,13.58
2023-04-23T20:09:14.352Z,13.57
2023-04-23T20:11:40.865Z,13.55
2023-04-23T20:14:07.479Z,13.53
2023-04-23T20:16:34.380Z,13.55
2023-04-23T20:19:01.910Z,13.45
2023-04-23T20:21:28.466Z,13.44
2023-04-23T20:23:54.976Z,13.49
2023-04-23T20:26:21.648Z,13.40
2023-04-23T20:28:50.033Z,13.38
2023-04-23T20:31:16.533Z,13.34
2023-04-23T20:33:43.101Z,13.33
2023-04-23T20:36:11.000Z,13.28
2023-04-23T20:38:38.308Z,13.32
2023-04-23T20:41:05.844Z,13.32
2023-04-23T20:43:34.412Z,13.27
2023-04-23T20:46:01.284Z,13.29
2023-04-23T20:48:29.468Z,13.29
2023-04-23T20:50:57.202Z,13.30
2023-04-23T20:53:24.265Z,13.21
2023-04-23T20:55:50.869Z,13.18
2023-04-23T20:58:17.627Z,13.21
2023-04-23T21:00:44.434Z,13.15
2023-04-23T21:03:11.972Z,13.13
2023-04-23T21:05:40.394Z,13.19
2023-04-23T21:08:07.987Z,13.13
2023-04-23T21:10:34.584Z,13.12
2023-04-23T21:13:01.713Z,13.16
2023-04-23T21:15:29.732Z,13.13
2023-04-23T21:17:56.590Z,13.07
2023-04-23T21:20:23.461Z,13.02
2023-04-23T21:22:50.097Z,13.07
2023-04-23T21:25:16.822Z,13.07
2023-04-23T21:27:46.041Z,13.02
2023-04-23T21:30:24.670Z,13.05
2023-04-23T21:32:52.214Z,12.99
2023-04-23T21:35:19.007Z,12.98
2023-04-23T21:37:45.588Z,12.94
2023-04-23T21:40:12.766Z,12.92
2023-04-23T21:42:39.371Z,12.97
2023-04-23T21:45:06.564Z,12.92
2023-04-23T21:47:33.167Z,12.88
2023-04-23T21:50:01.434Z,12.87
2023-04-23T21:52:27.940Z,12.86
2023-04-23T21:54:54.464Z,12.92
2023-04-23T21:57:21.025Z,12.86
2023-04-23T21:59:47.655Z,12.82
2023-04-23T22:02:14.767Z,12.79
2023-04-23T22:04:41.529Z,12.83
2023-04-23T22:07:13.041Z,12.77
2023-04-23T22:09:41.367Z,12.73
2023-04-23T22:12:09.483Z,12.72
2023-04-23T22:14:36.001Z,12.72
2023-04-23T22:17:03.538Z,12.68
2023-04-23T22:19:31.277Z,12.64
2023-04-23T22:21:58.217Z,12.66
2023-04-23T22:24:24.843Z,12.62
2023-04-23T22:26:51.655Z,12.61
2023-04-23T22:29:18.244Z,12.64
2023-04-23T22:31:45.007Z,12.51
2023-04-23T22:34:11.728Z,12.51
2023-04-23T22:36:38.319Z,12.46
2023-04-23T22:39:05.843Z,12.47
2023-04-23T22:41:33.771Z,12.35
2023-04-23T22:44:00.912Z,12.36
2023-04-23T22:46:28.053Z,12.32
2023-04-23T22:48:54.742Z,12.41
2023-04-23T22:51:21.293Z,12.34
2023-04-23T22:53:47.832Z,12.22
2023-04-23T22:56:14.383Z,12.20
2023-04-23T22:58:40.993Z,12.19
2023-04-23T23:01:07.562Z,12.14
2023-04-23T23:03:34.335Z,12.11
2023-04-23T23:06:00.921Z,12.07
2023-04-23T23:08:27.406Z,12.17
2023-04-23T23:10:54.007Z,12.19
2023-04-23T23:13:20.695Z,12.12
2023-04-23T23:15:49.165Z,12.25
2023-04-23T23:18:16.109Z,12.03
2023-04-23T23:20:44.698Z,11.98
2023-04-23T23:23:11.289Z,11.96
2023-04-23T23:25:38.385Z,12.07
2023-04-23T23:28:05.296Z,12.01
2023-04-23T23:30:31.983Z,12.03
2023-04-23T23:32:58.825Z,11.99
2023-04-23T23:35:25.489Z,11.93
2023-04-23T23:37:52.749Z,11.88
2023-04-23T23:40:19.441Z,11.95
2023-04-23T23:42:46.017Z,11.86
2023-04-23T23:45:12.561Z,11.85
2023-04-23T23:47:39.169Z,11.95
2023-04-23T23:50:06.715Z,11.98
2023-04-23T23:52:33.315Z,11.95
2023-04-23T23:54:59.850Z,11.95
2023-04-23T23:57:26.561Z,12.00
2023-04-23T23:59:53.072Z,12.11
